createdAt,value
2019-02-22T00:01:27.255Z,50.10
2019-02-22T00:03:58.633Z,49.57
2019-02-22T00:06:29.846Z,52.63
2019-02-22T00:09:01.460Z,53.60
2019-02-22T00:11:32.861Z,54.30
2019-02-22T00:14:04.217Z,53.73
2019-02-22T00:16:35.410Z,53.57
2019-02-22T00:19:06.678Z,58.40
2019-02-22T00:21:37.876Z,55.30
2019-02-22T00:24:09.491Z,61.50
2019-02-22T00:26:40.728Z,59.13
2019-02-22T00:29:11.867Z,52.83
2019-02-22T00:31:43.009Z,50.60
2019-02-22T00:34:14.181Z,61.27
2019-02-22T00:36:45.377Z,53.00
2019-02-22T00:39:16.903Z,52.87
2019-02-22T00:41:48.100Z,53.43
2019-02-22T00:44:19.493Z,53.00
2019-02-22T00:46:50.611Z,52.47
2019-02-22T00:49:22.000Z,49.13
2019-02-22T00:51:53.564Z,49.93
2019-02-22T00:54:24.763Z,55.97
2019-02-22T00:56:56.027Z,51.87
2019-02-22T00:59:27.509Z,61.57
2019-02-22T01:01:59.252Z,52.10
2019-02-22T01:04:30.413Z,54.70
2019-02-22T01:07:01.914Z,60.40
2019-02-22T01:09:33.114Z,51.87
2019-02-22T01:12:04.376Z,54.83
2019-02-22T01:14:35.674Z,52.00
2019-02-22T01:17:07.452Z,55.57
2019-02-22T01:19:38.809Z,56.17
2019-02-22T01:22:09.933Z,62.47
2019-02-22T01:24:41.717Z,53.73
2019-02-22T01:27:12.911Z,55.53
2019-02-22T01:29:44.021Z,53.77
2019-02-22T01:32:15.473Z,54.87
2019-02-22T01:34:46.686Z,59.63
2019-02-22T01:37:17.937Z,52.13
2019-02-22T01:39:49.188Z,55.63
2019-02-22T01:42:21.367Z,59.87
2019-02-22T01:44:52.475Z,53.93
2019-02-22T01:47:24.102Z,59.30
2019-02-22T01:49:55.299Z,58.97
2019-02-22T01:52:26.491Z,57.10
2019-02-22T01:54:58.946Z,57.70
2019-02-22T01:57:30.366Z,58.80
2019-02-22T02:00:01.641Z,59.10
2019-02-22T02:02:32.858Z,62.67
2019-02-22T02:05:04.019Z,63.17
2019-02-22T02:07:35.278Z,54.13
2019-02-22T02:10:07.411Z,56.20
2019-02-22T02:12:38.539Z,58.43
2019-02-22T02:15:10.455Z,49.77
2019-02-22T02:17:42.246Z,60.00
2019-02-22T02:20:13.625Z,56.67
2019-02-22T02:22:44.877Z,55.70
2019-02-22T02:25:16.128Z,60.17
2019-02-22T02:27:47.931Z,57.53
2019-02-22T02:30:19.116Z,53.00
2019-02-22T02:32:50.337Z,52.47
2019-02-22T02:35:21.607Z,51.17
2019-02-22T02:37:52.783Z,56.63
2019-02-22T02:40:24.392Z,52.13
2019-02-22T02:42:55.595Z,55.27
2019-02-22T02:45:26.770Z,50.37
2019-02-22T02:47:57.982Z,56.20
2019-02-22T02:50:29.182Z,57.17
2019-02-22T02:53:00.323Z,47.70
2019-02-22T02:55:34.247Z,51.23
2019-02-22T02:58:05.577Z,52.53
2019-02-22T03:00:37.441Z,53.30
2019-02-22T03:03:08.707Z,50.53
2019-02-22T03:05:59.047Z,52.70
2019-02-22T03:08:34.088Z,56.07
2019-02-22T03:11:05.519Z,56.83
2019-02-22T03:13:36.946Z,56.67
2019-02-22T03:16:08.245Z,62.43
2019-02-22T03:18:39.428Z,64.03
2019-02-22T03:21:10.867Z,57.77
2019-02-22T03:23:42.022Z,66.47
2019-02-22T03:26:13.243Z,64.80
2019-02-22T03:28:44.420Z,62.67
2019-02-22T03:31:16.013Z,66.20
2019-02-22T03:33:47.112Z,73.60
2019-02-22T03:36:18.285Z,67.90
2019-02-22T03:38:49.674Z,60.50
2019-02-22T03:41:32.278Z,66.80
2019-02-22T03:43:55.233Z,65.30
2019-02-22T03:46:26.418Z,70.00
2019-02-22T03:48:57.616Z,78.13
2019-02-22T03:51:29.150Z,73.40
2019-02-22T03:54:02.540Z,68.97
2019-02-22T03:56:33.919Z,67.57
2019-02-22T03:59:05.549Z,74.17
2019-02-22T04:01:36.787Z,60.47
2019-02-22T04:04:08.428Z,64.10
2019-02-22T04:06:39.531Z,64.00
2019-02-22T04:09:14.151Z,62.93
2019-02-22T04:11:46.536Z,70.23
2019-02-22T04:14:17.781Z,66.63
2019-02-22T04:16:49.298Z,58.77
2019-02-22T04:19:21.022Z,66.17
2019-02-22T04:21:52.387Z,57.07
2019-02-22T04:24:23.652Z,63.70
2019-02-22T04:26:54.941Z,61.03
2019-02-22T04:29:26.134Z,61.40
2019-02-22T04:31:57.301Z,60.03
2019-02-22T04:34:28.611Z,62.40
2019-02-22T04:36:59.880Z,54.87
2019-02-22T04:39:30.961Z,52.07
2019-02-22T04:42:02.648Z,59.47
2019-02-22T04:44:33.808Z,63.53
2019-02-22T04:47:05.007Z,67.27
2019-02-22T04:49:37.121Z,61.70
2019-02-22T04:52:08.321Z,61.43
2019-02-22T04:54:39.822Z,60.47
2019-02-22T04:57:11.261Z,67.20
2019-02-22T04:59:42.361Z,60.67
2019-02-22T05:02:13.564Z,68.50
2019-02-22T05:04:45.221Z,66.80
2019-02-22T05:07:16.606Z,66.27
2019-02-22T05:09:47.850Z,64.73
2019-02-22T05:12:19.472Z,65.47
2019-02-22T05:14:50.562Z,64.67
2019-02-22T05:17:21.746Z,59.80
2019-02-22T05:19:52.875Z,57.43
2019-02-22T05:22:23.970Z,51.10
2019-02-22T05:24:55.047Z,52.30
2019-02-22T05:27:26.757Z,42.83
2019-02-22T05:29:57.942Z,42.60
2019-02-22T05:32:29.158Z,41.90
2019-02-22T05:35:00.376Z,44.00
2019-02-22T05:37:31.529Z,42.73
2019-02-22T05:40:02.691Z,45.23
2019-02-22T05:42:33.852Z,42.93
2019-02-22T05:45:05.547Z,44.10
2019-02-22T05:47:36.770Z,43.70
2019-02-22T05:50:08.408Z,44.60
2019-02-22T05:52:39.598Z,43.57
2019-02-22T05:55:10.856Z,37.17
2019-02-22T05:57:41.958Z,40.77
2019-02-22T06:00:13.692Z,46.50
2019-02-22T06:02:45.116Z,47.77
2019-02-22T06:05:16.377Z,51.50
2019-02-22T06:07:47.480Z,44.30
2019-02-22T06:10:18.744Z,46.10
2019-02-22T06:12:49.936Z,48.17
2019-02-22T06:15:21.307Z,48.50
2019-02-22T06:17:52.615Z,50.27
2019-02-22T06:20:23.779Z,52.97
2019-02-22T06:22:54.983Z,52.70
2019-02-22T06:25:26.537Z,52.27
2019-02-22T06:27:57.631Z,49.67
2019-02-22T06:30:28.757Z,54.23
2019-02-22T06:33:00.219Z,48.93
2019-02-22T06:35:31.312Z,46.03
2019-02-22T06:38:03.081Z,51.60
2019-02-22T06:40:34.284Z,51.30
2019-02-22T06:43:05.521Z,49.97
2019-02-22T06:45:36.719Z,52.00
2019-02-22T06:48:07.899Z,50.50
2019-02-22T06:50:39.423Z,51.43
2019-02-22T06:53:10.608Z,48.87
2019-02-22T06:55:42.327Z,52.00
2019-02-22T06:58:13.480Z,50.50
2019-02-22T07:00:44.579Z,52.47
2019-02-22T07:03:15.728Z,50.20
2019-02-22T07:05:46.822Z,51.80
2019-02-22T07:08:17.939Z,50.53
2019-02-22T07:11:05.269Z,51.13
2019-02-22T07:13:36.359Z,55.10
2019-02-22T07:16:08.660Z,52.33
2019-02-22T07:18:39.883Z,54.53
2019-02-22T07:21:11.497Z,52.73
2019-02-22T07:23:42.836Z,55.03
2019-02-22T07:26:13.990Z,57.57
2019-02-22T07:28:45.174Z,52.10
2019-02-22T07:31:16.427Z,55.60
2019-02-22T07:33:47.622Z,55.83
2019-02-22T07:36:19.096Z,56.10
2019-02-22T07:38:50.714Z,55.83
2019-02-22T07:41:21.928Z,55.77
2019-02-22T07:43:53.419Z,56.53
2019-02-22T07:46:24.687Z,57.80
2019-02-22T07:48:55.816Z,61.37
2019-02-22T07:51:26.969Z,60.90
2019-02-22T07:53:58.528Z,59.73
2019-02-22T07:56:29.689Z,63.07
2019-02-22T07:59:03.034Z,64.90
2019-02-22T08:01:33.635Z,59.67
2019-02-22T08:04:04.857Z,58.07
2019-02-22T08:06:36.449Z,58.17
2019-02-22T08:09:08.063Z,62.57
2019-02-22T08:11:39.311Z,62.23
2019-02-22T08:14:11.328Z,60.97
2019-02-22T08:16:42.427Z,65.63
2019-02-22T08:19:13.618Z,62.83
2019-02-22T08:21:44.733Z,62.77
2019-02-22T08:24:15.835Z,70.00
2019-02-22T08:26:46.932Z,65.50
2019-02-22T08:29:18.040Z,66.50
2019-02-22T08:31:49.284Z,63.33
2019-02-22T08:34:20.878Z,67.77
2019-02-22T08:36:52.010Z,64.40
2019-02-22T08:39:23.222Z,65.10
2019-02-22T08:41:54.460Z,60.93
2019-02-22T08:44:25.674Z,67.27
2019-02-22T08:46:56.791Z,61.00
2019-02-22T08:49:27.922Z,67.57
2019-02-22T08:51:59.018Z,69.33
2019-02-22T08:54:30.807Z,71.27
2019-02-22T08:57:01.982Z,80.37
2019-02-22T08:59:33.111Z,77.40
2019-02-22T09:02:04.353Z,85.00
2019-02-22T09:04:35.497Z,71.80
2019-02-22T09:07:06.825Z,71.40
2019-02-22T09:09:38.225Z,71.53
2019-02-22T09:12:09.169Z,66.17
2019-02-22T09:14:40.365Z,72.23
2019-02-22T09:17:11.548Z,72.00
2019-02-22T09:19:42.857Z,71.07
2019-02-22T09:22:22.287Z,69.30
2019-02-22T09:24:47.091Z,62.77
2019-02-22T09:27:18.319Z,72.83
2019-02-22T09:29:58.464Z,58.90
2019-02-22T09:32:22.830Z,59.57
2019-02-22T09:34:53.968Z,64.87
2019-02-22T09:37:25.257Z,62.60
2019-02-22T09:39:56.464Z,62.30
2019-02-22T09:42:27.725Z,64.67
2019-02-22T09:44:58.890Z,66.83
2019-02-22T09:47:30.102Z,61.73
2019-02-22T09:50:01.853Z,63.60
2019-02-22T09:52:33.361Z,80.30
2019-02-22T09:55:04.797Z,73.90
2019-02-22T09:57:36.055Z,82.97
2019-02-22T10:00:10.809Z,82.50
2019-02-22T10:02:44.634Z,82.13
2019-02-22T10:05:15.293Z,86.40
2019-02-22T10:07:46.450Z,78.17
2019-02-22T10:10:17.696Z,76.03
2019-02-22T10:12:48.804Z,70.57
2019-02-22T10:15:20.114Z,80.10
2019-02-22T10:17:51.816Z,73.30
2019-02-22T10:20:23.289Z,69.57
2019-02-22T10:22:54.744Z,67.17
2019-02-22T10:25:26.019Z,66.87
2019-02-22T10:27:57.100Z,61.73
2019-02-22T10:30:28.308Z,65.27
2019-02-22T10:32:59.786Z,65.80
2019-02-22T10:35:31.134Z,58.93
2019-02-22T10:38:02.319Z,60.57
2019-02-22T10:40:33.788Z,61.90
2019-02-22T10:43:05.049Z,52.87
2019-02-22T10:45:37.039Z,56.23
2019-02-22T10:48:08.510Z,54.77
2019-02-22T10:50:39.879Z,56.13
2019-02-22T10:53:11.565Z,49.73
2019-02-22T10:55:42.861Z,50.93
2019-02-22T10:58:14.240Z,52.33
2019-02-22T11:00:45.527Z,55.03
2019-02-22T11:03:16.715Z,49.60
2019-02-22T11:05:48.180Z,58.37
2019-02-22T11:08:19.425Z,51.27
2019-02-22T11:10:50.627Z,43.37
2019-02-22T11:13:22.439Z,40.37
2019-02-22T11:15:53.655Z,39.87
2019-02-22T11:18:24.952Z,44.50
2019-02-22T11:20:56.456Z,44.53
2019-02-22T11:23:27.668Z,40.37
2019-02-22T11:25:58.854Z,44.47
2019-02-22T11:28:29.972Z,40.33
2019-02-22T11:31:01.174Z,36.53
2019-02-22T11:33:32.663Z,36.07
2019-02-22T11:36:03.926Z,33.90
2019-02-22T11:38:35.426Z,38.50
2019-02-22T11:41:06.817Z,39.10
2019-02-22T11:43:38.419Z,33.30
2019-02-22T11:46:09.633Z,31.97
2019-02-22T11:48:40.835Z,33.17
2019-02-22T11:51:12.263Z,31.93
2019-02-22T11:53:43.642Z,27.03
2019-02-22T11:56:14.848Z,27.60
2019-02-22T11:58:46.482Z,25.13
2019-02-22T12:01:17.825Z,24.47
2019-02-22T12:03:49.134Z,19.47
2019-02-22T12:06:20.867Z,19.50
2019-02-22T12:08:52.084Z,19.47
2019-02-22T12:11:23.979Z,18.27
2019-02-22T12:13:55.106Z,21.03
2019-02-22T12:16:26.384Z,18.10
2019-02-22T12:18:57.618Z,15.83
2019-02-22T12:21:28.733Z,16.97
2019-02-22T12:23:59.909Z,17.37
2019-02-22T12:26:31.955Z,16.47
2019-02-22T12:29:03.296Z,21.13
2019-02-22T12:31:34.847Z,20.30
2019-02-22T12:34:06.129Z,47.93
2019-02-22T12:36:37.433Z,17.13
2019-02-22T12:39:09.554Z,15.37
2019-02-22T12:41:40.652Z,14.67
2019-02-22T12:44:12.124Z,15.97
2019-02-22T12:46:43.234Z,14.87
2019-02-22T12:49:14.355Z,14.53
2019-02-22T12:51:46.059Z,12.73
2019-02-22T12:54:17.649Z,16.47
2019-02-22T12:56:58.135Z,27.87
2019-02-22T12:59:22.367Z,26.53
2019-02-22T13:01:53.625Z,21.83
2019-02-22T13:04:24.756Z,15.63
2019-02-22T13:06:56.320Z,14.87
2019-02-22T13:09:36.441Z,18.50
2019-02-22T13:12:00.491Z,17.07
2019-02-22T13:14:31.595Z,17.23
2019-02-22T13:17:02.896Z,28.20
2019-02-22T13:19:34.102Z,32.40
2019-02-22T13:22:05.452Z,27.73
2019-02-22T13:24:36.662Z,22.97
2019-02-22T13:27:07.511Z,22.60
2019-02-22T13:29:38.693Z,21.27
2019-02-22T13:32:09.878Z,21.37
2019-02-22T13:34:41.834Z,22.17
2019-02-22T13:37:13.378Z,15.73
2019-02-22T13:39:44.668Z,15.83
2019-02-22T13:42:16.176Z,16.70
2019-02-22T13:44:47.905Z,15.63
2019-02-22T13:47:19.068Z,14.97
2019-02-22T13:49:50.288Z,14.17
2019-02-22T13:52:21.568Z,14.30
2019-02-22T13:54:52.707Z,10.60
2019-02-22T13:57:23.834Z,13.23
2019-02-22T13:59:54.953Z,10.60
2019-02-22T14:02:26.458Z,11.00
2019-02-22T14:04:57.755Z,9.57
2019-02-22T14:07:29.034Z,9.40
2019-02-22T14:10:00.541Z,10.47
2019-02-22T14:12:32.120Z,16.00
2019-02-22T14:15:03.422Z,10.13
2019-02-22T14:17:34.822Z,13.53
2019-02-22T14:20:06.782Z,9.10
2019-02-22T14:22:37.952Z,16.23
2019-02-22T14:25:10.761Z,15.20
2019-02-22T14:27:42.300Z,10.37
2019-02-22T14:30:13.992Z,9.43
2019-02-22T14:32:45.228Z,10.17
2019-02-22T14:35:16.915Z,7.67
2019-02-22T14:37:48.447Z,8.07
2019-02-22T14:40:20.173Z,8.07
2019-02-22T14:42:51.930Z,6.37
2019-02-22T14:45:23.211Z,6.40
2019-02-22T14:47:55.182Z,7.50
2019-02-22T14:50:26.577Z,10.53
2019-02-22T14:52:57.962Z,8.53
2019-02-22T14:55:29.608Z,8.13
2019-02-22T14:58:00.796Z,10.97
2019-02-22T15:00:32.204Z,10.73
2019-02-22T15:03:03.600Z,8.70
2019-02-22T15:05:35.134Z,6.93
2019-02-22T15:08:06.408Z,8.17
2019-02-22T15:10:37.991Z,7.30
2019-02-22T15:13:12.664Z,7.03
2019-02-22T15:16:03.794Z,8.93
2019-02-22T15:18:34.283Z,6.47
2019-02-22T15:21:05.665Z,7.57
2019-02-22T15:23:38.760Z,10.33
2019-02-22T15:26:10.376Z,9.30
2019-02-22T15:28:41.793Z,6.87
2019-02-22T15:31:13.406Z,7.67
2019-02-22T15:33:45.199Z,7.17
2019-02-22T15:36:16.431Z,6.27
2019-02-22T15:38:47.902Z,5.93
2019-02-22T15:41:19.191Z,6.37
2019-02-22T15:43:51.080Z,7.10
2019-02-22T15:46:22.580Z,6.93
2019-02-22T15:48:54.046Z,9.50
2019-02-22T15:51:25.544Z,7.83
2019-02-22T15:53:56.806Z,22.13
2019-02-22T15:56:28.222Z,9.60
2019-02-22T15:58:59.574Z,9.00
2019-02-22T16:01:31.346Z,9.80
2019-02-22T16:04:20.550Z,16.07
2019-02-22T16:06:52.171Z,14.63
2019-02-22T16:09:23.429Z,19.30
2019-02-22T16:11:54.880Z,68.73
2019-02-22T16:14:26.102Z,68.20
2019-02-22T16:16:57.491Z,46.87
2019-02-22T16:19:29.415Z,44.47
2019-02-22T16:22:00.763Z,22.50
2019-02-22T16:24:32.096Z,42.00
2019-02-22T16:27:03.966Z,52.87
2019-02-22T16:29:35.280Z,47.90
2019-02-22T16:32:07.173Z,29.80
2019-02-22T16:34:43.465Z,26.63
2019-02-22T16:37:11.766Z,33.33
2019-02-22T16:39:43.041Z,13.87
2019-02-22T16:42:14.173Z,9.83
2019-02-22T16:44:45.589Z,9.83
2019-02-22T16:47:16.886Z,11.27
2019-02-22T16:49:48.573Z,13.77
2019-02-22T16:52:20.126Z,40.53
2019-02-22T16:54:51.481Z,32.23
2019-02-22T16:57:22.765Z,17.33
2019-02-22T16:59:54.389Z,14.47
2019-02-22T17:02:27.305Z,10.33
2019-02-22T17:04:58.544Z,9.93
2019-02-22T17:07:29.742Z,11.30
2019-02-22T17:10:00.960Z,10.03
2019-02-22T17:12:32.581Z,10.60
2019-02-22T17:15:04.317Z,12.67
2019-02-22T17:17:35.652Z,24.73
2019-02-22T17:20:08.270Z,25.47
2019-02-22T17:22:39.634Z,89.23
2019-02-22T17:25:13.382Z,97.90
2019-02-22T17:27:44.606Z,93.10
2019-02-22T17:30:16.413Z,54.10
2019-02-22T17:32:47.701Z,67.03
2019-02-22T17:35:19.178Z,56.07
2019-02-22T17:37:50.468Z,84.30
2019-02-22T17:40:21.819Z,27.67
2019-02-22T17:42:53.174Z,19.77
2019-02-22T17:45:24.448Z,14.83
2019-02-22T17:47:55.580Z,16.80
2019-02-22T17:50:27.202Z,15.43
2019-02-22T17:52:58.861Z,14.77
2019-02-22T17:55:30.536Z,22.30
2019-02-22T17:58:01.648Z,22.03
2019-02-22T18:00:33.514Z,18.70
2019-02-22T18:03:04.742Z,18.63
2019-02-22T18:05:36.201Z,27.13
2019-02-22T18:08:07.719Z,18.30
2019-02-22T18:10:38.881Z,15.57
2019-02-22T18:13:10.249Z,17.30
2019-02-22T18:15:41.538Z,19.17
2019-02-22T18:18:13.136Z,20.83
2019-02-22T18:20:44.664Z,17.37
2019-02-22T18:23:15.906Z,20.77
2019-02-22T18:25:47.225Z,17.43
2019-02-22T18:28:18.576Z,15.23
2019-02-22T18:30:49.988Z,19.73
2019-02-22T18:33:21.569Z,18.80
2019-02-22T18:35:52.806Z,18.90
2019-02-22T18:38:25.145Z,19.53
2019-02-22T18:40:56.448Z,21.70
2019-02-22T18:43:27.737Z,23.43
2019-02-22T18:45:59.448Z,18.03
2019-02-22T18:48:30.754Z,19.33
2019-02-22T18:51:02.046Z,17.40
2019-02-22T18:53:33.384Z,24.50
2019-02-22T18:56:04.499Z,22.37
2019-02-22T18:58:35.705Z,17.67
2019-02-22T19:01:06.981Z,20.40
2019-02-22T19:03:38.369Z,20.37
2019-02-22T19:06:09.471Z,17.80
2019-02-22T19:08:41.743Z,23.57
2019-02-22T19:11:12.890Z,39.87
2019-02-22T19:13:44.029Z,28.02
2019-02-22T19:16:15.168Z,30.77
2019-02-22T19:18:46.249Z,24.53
2019-02-22T19:21:17.467Z,23.73
2019-02-22T19:23:48.591Z,29.60
2019-02-22T19:26:19.882Z,23.77
2019-02-22T19:28:51.068Z,23.33
2019-02-22T19:31:22.186Z,21.03
2019-02-22T19:33:53.387Z,24.20
2019-02-22T19:36:24.577Z,15.93
2019-02-22T19:38:55.907Z,16.33
2019-02-22T19:41:27.079Z,16.27
2019-02-22T19:43:58.198Z,14.10
2019-02-22T19:46:29.506Z,16.63
2019-02-22T19:49:00.640Z,13.73
2019-02-22T19:51:31.831Z,12.60
2019-02-22T19:54:03.207Z,15.03
2019-02-22T19:56:34.654Z,13.73
2019-02-22T19:59:05.807Z,15.07
2019-02-22T20:01:37.001Z,18.37
2019-02-22T20:04:08.605Z,16.13
2019-02-22T20:06:39.783Z,18.40
2019-02-22T20:09:11.293Z,18.83
2019-02-22T20:11:42.831Z,18.17
2019-02-22T20:14:14.104Z,18.97
2019-02-22T20:16:45.317Z,21.87
2019-02-22T20:19:16.498Z,18.93
2019-02-22T20:21:48.032Z,20.73
2019-02-22T20:24:19.217Z,20.93
2019-02-22T20:26:50.392Z,21.80
2019-02-22T20:29:21.486Z,20.80
2019-02-22T20:31:52.956Z,20.43
2019-02-22T20:34:24.069Z,19.67
2019-02-22T20:36:55.343Z,19.27
2019-02-22T20:39:26.488Z,22.10
2019-02-22T20:41:58.402Z,21.03
2019-02-22T20:44:29.620Z,21.13
2019-02-22T20:47:01.446Z,20.37
2019-02-22T20:49:32.869Z,18.80
2019-02-22T20:52:04.043Z,18.87
2019-02-22T20:54:35.165Z,20.67
2019-02-22T20:57:06.983Z,17.60
2019-02-22T20:59:38.157Z,17.97
2019-02-22T21:02:09.835Z,18.20
2019-02-22T21:04:40.959Z,16.10
2019-02-22T21:07:12.714Z,18.47
2019-02-22T21:09:44.296Z,13.90
2019-02-22T21:12:15.759Z,13.63
2019-02-22T21:14:47.074Z,14.20
2019-02-22T21:17:18.201Z,14.77
2019-02-22T21:19:49.658Z,15.43
2019-02-22T21:22:20.801Z,12.73
2019-02-22T21:24:51.975Z,13.77
2019-02-22T21:27:23.075Z,13.77
2019-02-22T21:29:54.259Z,20.70
2019-02-22T21:32:25.461Z,19.83
2019-02-22T21:34:56.621Z,30.70
2019-02-22T21:37:27.897Z,23.53
2019-02-22T21:39:58.996Z,17.93
2019-02-22T21:42:30.240Z,17.40
2019-02-22T21:45:01.503Z,18.27
2019-02-22T21:47:32.947Z,15.70
2019-02-22T21:50:04.608Z,12.63
2019-02-22T21:52:36.132Z,11.47
2019-02-22T21:55:07.525Z,14.70
2019-02-22T21:57:39.768Z,16.07
2019-02-22T22:00:17.280Z,15.67
2019-02-22T22:02:48.758Z,14.20
2019-02-22T22:05:20.008Z,17.33
2019-02-22T22:07:51.107Z,14.17
2019-02-22T22:10:22.359Z,14.87
2019-02-22T22:12:53.565Z,11.50
2019-02-22T22:15:25.105Z,13.23
2019-02-22T22:17:56.265Z,14.17
2019-02-22T22:20:27.820Z,15.60
2019-02-22T22:22:58.991Z,14.37
2019-02-22T22:25:30.110Z,16.50
2019-02-22T22:28:01.493Z,14.43
2019-02-22T22:30:32.765Z,16.93
2019-02-22T22:33:03.929Z,14.87
2019-02-22T22:35:35.449Z,15.70
2019-02-22T22:38:06.567Z,16.20
2019-02-22T22:40:37.911Z,15.23
2019-02-22T22:43:09.099Z,15.70
2019-02-22T22:45:40.326Z,17.43
2019-02-22T22:48:11.709Z,15.03
2019-02-22T22:50:42.826Z,13.80
2019-02-22T22:53:13.909Z,16.37
2019-02-22T22:55:45.024Z,15.73
2019-02-22T22:58:16.453Z,13.93
2019-02-22T23:01:09.751Z,15.77
2019-02-22T23:03:41.033Z,15.47
2019-02-22T23:06:13.872Z,17.23
2019-02-22T23:08:45.467Z,17.93
2019-02-22T23:11:16.707Z,16.47
2019-02-22T23:13:48.997Z,16.07
2019-02-22T23:16:20.317Z,16.93
2019-02-22T23:19:01.348Z,16.27
2019-02-22T23:21:24.521Z,15.90
2019-02-22T23:23:55.802Z,18.50
2019-02-22T23:26:27.149Z,15.13
2019-02-22T23:28:58.311Z,19.30
2019-02-22T23:31:29.503Z,14.87
2019-02-22T23:34:00.611Z,17.90
2019-02-22T23:36:32.181Z,18.20
2019-02-22T23:39:04.040Z,15.27
2019-02-22T23:41:35.828Z,13.50
2019-02-22T23:44:07.068Z,12.53
2019-02-22T23:46:38.569Z,13.57
2019-02-22T23:49:13.178Z,12.20
2019-02-22T23:51:42.796Z,14.50
2019-02-22T23:54:13.878Z,13.80
2019-02-22T23:56:45.006Z,22.67
2019-02-22T23:59:16.073Z,20.00
